sensor_id;sensor_type;location;lat;lon;timestamp;temperature;humidity
15676;DHT22;7938;47.666;9.434;2022-12-20T05:00:43;0.20;99.90
15676;DHT22;7938;47.666;9.434;2022-12-20T05:03:10;0.20;99.90
15676;DHT22;7938;47.666;9.434;2022-12-20T05:05:37;0.30;99.90
15676;DHT22;7938;47.666;9.434;2022-12-20T05:08:04;0.30;99.90
15676;DHT22;7938;47.666;9.434;2022-12-20T05:10:30;0.30;99.90
15676;DHT22;7938;47.666;9.434;2022-12-20T05:12:57;0.30;99.90
15676;DHT22;7938;47.666;9.434;2022-12-20T05:15:24;0.30;99.90
15676;DHT22;7938;47.666;9.434;2022-12-20T05:17:52;0.30;99.90
15676;DHT22;7938;47.666;9.434;2022-12-20T05:20:24;0.30;99.90
15676;DHT22;7938;47.666;9.434;2022-12-20T05:22:51;0.30;99.90
15676;DHT22;7938;47.666;9.434;2022-12-20T05:25:37;0.30;99.90
15676;DHT22;7938;47.666;9.434;2022-12-20T05:28:22;0.30;99.90
15676;DHT22;7938;47.666;9.434;2022-12-20T05:30:48;0.30;99.90
15676;DHT22;7938;47.666;9.434;2022-12-20T05:33:17;0.40;99.90
15676;DHT22;7938;47.666;9.434;2022-12-20T05:35:43;0.40;99.90
15676;DHT22;7938;47.666;9.434;2022-12-20T05:38:10;0.40;99.90
15676;DHT22;7938;47.666;9.434;2022-12-20T05:40:38;0.40;99.90
15676;DHT22;7938;47.666;9.434;2022-12-20T05:43:06;0.40;99.90
15676;DHT22;7938;47.666;9.434;2022-12-20T05:45:33;0.40;99.90
15676;DHT22;7938;47.666;9.434;2022-12-20T05:48:00;0.40;99.90
15676;DHT22;7938;47.666;9.434;2022-12-20T05:50:29;0.40;99.90
15676;DHT22;7938;47.666;9.434;2022-12-20T05:52:56;0.50;99.90
15676;DHT22;7938;47.666;9.434;2022-12-20T05:55:22;-0.20;99.90
15676;DHT22;7938;47.666;9.434;2022-12-20T05:57:49;1.00;99.90
15676;DHT22;7938;47.666;9.434;2022-12-20T06:00:17;0.60;99.90
15676;DHT22;7938;47.666;9.434;2022-12-20T06:02:43;0.60;99.90
15676;DHT22;7938;47.666;9.434;2022-12-20T06:05:11;0.60;99.90
15676;DHT22;7938;47.666;9.434;2022-12-20T06:07:39;0.50;99.90
15676;DHT22;7938;47.666;9.434;2022-12-20T06:10:07;0.60;99.90
15676;DHT22;7938;47.666;9.434;2022-12-20T06:12:34;0.50;99.90
15676;DHT22;7938;47.666;9.434;2022-12-20T06:15:01;0.50;99.90
15676;DHT22;7938;47.666;9.434;2022-12-20T06:17:28;0.50;99.90
15676;DHT22;7938;47.666;9.434;2022-12-20T06:19:55;0.40;99.90
15676;DHT22;7938;47.666;9.434;2022-12-20T06:22:22;0.50;99.90
15676;DHT22;7938;47.666;9.434;2022-12-20T06:24:50;0.40;99.90
15676;DHT22;7938;47.666;9.434;2022-12-20T06:27:17;0.30;99.90
15676;DHT22;7938;47.666;9.434;2022-12-20T06:29:46;0.30;99.90
15676;DHT22;7938;47.666;9.434;2022-12-20T06:32:19;0.20;99.90
15676;DHT22;7938;47.666;9.434;2022-12-20T06:34:46;0.20;99.90
15676;DHT22;7938;47.666;9.434;2022-12-20T06:37:13;0.20;99.90
15676;DHT22;7938;47.666;9.434;2022-12-20T06:39:39;0.20;99.90
15676;DHT22;7938;47.666;9.434;2022-12-20T06:42:08;0.20;99.90
15676;DHT22;7938;47.666;9.434;2022-12-20T06:44:35;0.30;99.90
15676;DHT22;7938;47.666;9.434;2022-12-20T06:47:02;0.30;99.90
15676;DHT22;7938;47.666;9.434;2022-12-20T06:49:28;0.30;99.90
15676;DHT22;7938;47.666;9.434;2022-12-20T06:51:55;0.30;99.90
15676;DHT22;7938;47.666;9.434;2022-12-20T06:54:22;0.30;99.90
15676;DHT22;7938;47.666;9.434;2022-12-20T06:56:49;0.40;99.90
15676;DHT22;7938;47.666;9.434;2022-12-20T06:59:17;0.30;99.90
15676;DHT22;7938;47.666;9.434;2022-12-20T07:01:44;0.30;99.90
15676;DHT22;7938;47.666;9.434;2022-12-20T07:04:11;0.50;99.90
15676;DHT22;7938;47.666;9.434;2022-12-20T07:06:38;-0.10;99.90
15676;DHT22;7938;47.666;9.434;2022-12-20T07:09:05;0.40;99.90
15676;DHT22;7938;47.666;9.434;2022-12-20T07:11:33;0.20;99.90
15676;DHT22;7938;47.666;9.434;2022-12-20T07:14:00;0.20;99.90
15676;DHT22;7938;47.666;9.434;2022-12-20T07:16:28;0.10;99.90
15676;DHT22;7938;47.666;9.434;2022-12-20T07:18:56;0.20;99.90
15676;DHT22;7938;47.666;9.434;2022-12-20T07:21:23;0.10;99.90
15676;DHT22;7938;47.666;9.434;2022-12-20T07:23:50;0.20;99.90
15676;DHT22;7938;47.666;9.434;2022-12-20T07:26:17;0.20;99.90
15676;DHT22;7938;47.666;9.434;2022-12-20T07:28:44;0.20;99.90
15676;DHT22;7938;47.666;9.434;2022-12-20T07:31:11;0.30;99.90
15676;DHT22;7938;47.666;9.434;2022-12-20T07:33:39;0.30;99.90
15676;DHT22;7938;47.666;9.434;2022-12-20T07:36:07;0.30;99.90
15676;DHT22;7938;47.666;9.434;2022-12-20T07:38:35;0.40;99.90
15676;DHT22;7938;47.666;9.434;2022-12-20T07:41:06;0.40;99.90
15676;DHT22;7938;47.666;9.434;2022-12-20T07:43:33;0.40;99.90
15676;DHT22;7938;47.666;9.434;2022-12-20T07:46:00;0.40;99.90
15676;DHT22;7938;47.666;9.434;2022-12-20T07:48:28;0.50;99.90
15676;DHT22;7938;47.666;9.434;2022-12-20T07:50:59;0.50;99.90
15676;DHT22;7938;47.666;9.434;2022-12-20T07:53:28;0.50;99.90
15676;DHT22;7938;47.666;9.434;2022-12-20T07:55:56;0.60;99.90
15676;DHT22;7938;47.666;9.434;2022-12-20T07:58:24;0.50;99.90
15676;DHT22;7938;47.666;9.434;2022-12-20T08:00:52;0.60;99.90
15676;DHT22;7938;47.666;9.434;2022-12-20T08:03:21;0.60;99.90
15676;DHT22;7938;47.666;9.434;2022-12-20T08:05:52;0.60;99.90
15676;DHT22;7938;47.666;9.434;2022-12-20T08:08:22;0.60;99.90
15676;DHT22;7938;47.666;9.434;2022-12-20T08:10:49;0.70;99.90
15676;DHT22;7938;47.666;9.434;2022-12-20T08:13:17;0.80;99.90
15676;DHT22;7938;47.666;9.434;2022-12-20T08:15:44;0.90;99.90
15676;DHT22;7938;47.666;9.434;2022-12-20T08:18:10;1.10;99.90
15676;DHT22;7938;47.666;9.434;2022-12-20T08:20:37;1.20;99.90
15676;DHT22;7938;47.666;9.434;2022-12-20T08:23:04;1.20;99.90
15676;DHT22;7938;47.666;9.434;2022-12-20T08:25:32;1.20;99.90
15676;DHT22;7938;47.666;9.434;2022-12-20T08:27:59;1.10;99.90
15676;DHT22;7938;47.666;9.434;2022-12-20T08:30:29;1.20;99.90
15676;DHT22;7938;47.666;9.434;2022-12-20T08:32:56;1.20;99.90
15676;DHT22;7938;47.666;9.434;2022-12-20T08:35:22;1.30;99.90
15676;DHT22;7938;47.666;9.434;2022-12-20T08:37:50;1.50;99.90
15676;DHT22;7938;47.666;9.434;2022-12-20T08:40:18;1.50;99.90
15676;DHT22;7938;47.666;9.434;2022-12-20T08:42:46;1.50;99.90
15676;DHT22;7938;47.666;9.434;2022-12-20T08:45:13;1.50;99.90
15676;DHT22;7938;47.666;9.434;2022-12-20T08:47:40;1.50;99.90
15676;DHT22;7938;47.666;9.434;2022-12-20T08:50:08;1.60;99.90
15676;DHT22;7938;47.666;9.434;2022-12-20T08:52:34;1.60;99.90
15676;DHT22;7938;47.666;9.434;2022-12-20T08:55:01;1.60;99.90
15676;DHT22;7938;47.666;9.434;2022-12-20T08:57:28;1.70;99.90
15676;DHT22;7938;47.666;9.434;2022-12-20T08:59:57;1.80;99.90
15676;DHT22;7938;47.666;9.434;2022-12-20T09:02:23;1.40;99.90
15676;DHT22;7938;47.666;9.434;2022-12-20T09:04:50;1.90;99.90
15676;DHT22;7938;47.666;9.434;2022-12-20T09:07:17;1.90;99.90
15676;DHT22;7938;47.666;9.434;2022-12-20T09:09:45;2.00;99.90
15676;DHT22;7938;47.666;9.434;2022-12-20T09:12:12;2.10;99.90
15676;DHT22;7938;47.666;9.434;2022-12-20T09:14:39;2.10;99.90
15676;DHT22;7938;47.666;9.434;2022-12-20T09:17:08;2.10;99.90
15676;DHT22;7938;47.666;9.434;2022-12-20T09:19:34;2.10;99.90
15676;DHT22;7938;47.666;9.434;2022-12-20T09:22:01;2.20;99.90
15676;DHT22;7938;47.666;9.434;2022-12-20T09:24:29;2.30;99.90
15676;DHT22;7938;47.666;9.434;2022-12-20T09:26:56;2.30;99.90
15676;DHT22;7938;47.666;9.434;2022-12-20T09:29:22;2.40;99.90
15676;DHT22;7938;47.666;9.434;2022-12-20T09:31:49;2.40;99.90
15676;DHT22;7938;47.666;9.434;2022-12-20T09:34:18;2.50;99.90
15676;DHT22;7938;47.666;9.434;2022-12-20T09:36:44;2.70;99.90
15676;DHT22;7938;47.666;9.434;2022-12-20T09:39:11;2.80;99.90
15676;DHT22;7938;47.666;9.434;2022-12-20T09:41:39;2.80;99.90
15676;DHT22;7938;47.666;9.434;2022-12-20T09:44:14;2.90;99.90
15676;DHT22;7938;47.666;9.434;2022-12-20T09:46:42;2.90;99.90
15676;DHT22;7938;47.666;9.434;2022-12-20T09:49:11;3.00;99.90
15676;DHT22;7938;47.666;9.434;2022-12-20T09:54:51;3.50;99.90
15676;DHT22;7938;47.666;9.434;2022-12-20T09:57:26;3.70;99.90
15676;DHT22;7938;47.666;9.434;2022-12-20T09:59:55;3.90;99.90
15676;DHT22;7938;47.666;9.434;2022-12-20T10:02:24;3.20;99.90
15676;DHT22;7938;47.666;9.434;2022-12-20T10:04:52;4.10;99.90
15676;DHT22;7938;47.666;9.434;2022-12-20T10:07:32;3.90;99.90
15676;DHT22;7938;47.666;9.434;2022-12-20T10:10:32;3.90;99.90
15676;DHT22;7938;47.666;9.434;2022-12-20T10:13:13;3.90;99.90
15676;DHT22;7938;47.666;9.434;2022-12-20T10:15:45;4.00;99.90
15676;DHT22;7938;47.666;9.434;2022-12-20T10:18:27;4.00;99.90
15676;DHT22;7938;47.666;9.434;2022-12-20T10:20:57;3.90;99.90
15676;DHT22;7938;47.666;9.434;2022-12-20T10:23:32;3.80;99.90
15676;DHT22;7938;47.666;9.434;2022-12-20T10:26:08;3.90;99.90
15676;DHT22;7938;47.666;9.434;2022-12-20T10:28:35;3.80;99.90
15676;DHT22;7938;47.666;9.434;2022-12-20T10:31:05;3.90;99.90
15676;DHT22;7938;47.666;9.434;2022-12-20T10:33:32;3.90;99.90
15676;DHT22;7938;47.666;9.434;2022-12-20T10:36:20;3.70;99.90
15676;DHT22;7938;47.666;9.434;2022-12-20T10:38:51;3.70;99.90
15676;DHT22;7938;47.666;9.434;2022-12-20T10:41:20;3.90;99.90
15676;DHT22;7938;47.666;9.434;2022-12-20T10:43:51;3.90;99.90
15676;DHT22;7938;47.666;9.434;2022-12-20T10:46:19;3.90;99.90
15676;DHT22;7938;47.666;9.434;2022-12-20T10:48:47;4.10;99.90
15676;DHT22;7938;47.666;9.434;2022-12-20T10:51:17;4.20;99.90
15676;DHT22;7938;47.666;9.434;2022-12-20T10:53:55;4.20;99.90
15676;DHT22;7938;47.666;9.434;2022-12-20T10:56:24;4.40;99.90
15676;DHT22;7938;47.666;9.434;2022-12-20T10:58:55;4.40;99.90
15676;DHT22;7938;47.666;9.434;2022-12-20T11:01:25;4.50;99.90
15676;DHT22;7938;47.666;9.434;2022-12-20T11:03:55;4.60;99.90
15676;DHT22;7938;47.666;9.434;2022-12-20T11:06:24;4.60;99.90
15676;DHT22;7938;47.666;9.434;2022-12-20T11:08:53;4.60;99.90
15676;DHT22;7938;47.666;9.434;2022-12-20T11:11:38;4.70;99.90
15676;DHT22;7938;47.666;9.434;2022-12-20T11:14:13;4.70;99.90
15676;DHT22;7938;47.666;9.434;2022-12-20T11:16:40;4.60;99.90
15676;DHT22;7938;47.666;9.434;2022-12-20T11:19:30;4.60;99.90
15676;DHT22;7938;47.666;9.434;2022-12-20T11:22:04;4.50;99.90
15676;DHT22;7938;47.666;9.434;2022-12-20T11:24:42;4.40;99.90
15676;DHT22;7938;47.666;9.434;2022-12-20T11:27:18;4.40;99.90
15676;DHT22;7938;47.666;9.434;2022-12-20T11:30:03;4.50;99.90
15676;DHT22;7938;47.666;9.434;2022-12-20T11:35:40;4.40;99.90
15676;DHT22;7938;47.666;9.434;2022-12-20T11:38:21;4.50;99.90
15676;DHT22;7938;47.666;9.434;2022-12-20T11:40:54;4.40;99.90
15676;DHT22;7938;47.666;9.434;2022-12-20T11:43:37;4.40;99.90
15676;DHT22;7938;47.666;9.434;2022-12-20T11:46:17;4.40;99.90
15676;DHT22;7938;47.666;9.434;2022-12-20T11:49:17;4.50;99.90
15676;DHT22;7938;47.666;9.434;2022-12-20T11:51:58;4.60;99.90
15676;DHT22;7938;47.666;9.434;2022-12-20T11:54:32;4.50;99.90
15676;DHT22;7938;47.666;9.434;2022-12-20T11:57:05;4.60;99.90
15676;DHT22;7938;47.666;9.434;2022-12-20T11:59:40;4.70;99.90
15676;DHT22;7938;47.666;9.434;2022-12-20T12:02:11;5.00;99.90
15676;DHT22;7938;47.666;9.434;2022-12-20T12:04:44;5.10;99.90
15676;DHT22;7938;47.666;9.434;2022-12-20T12:07:15;5.10;99.90
15676;DHT22;7938;47.666;9.434;2022-12-20T12:09:50;5.20;99.90
15676;DHT22;7938;47.666;9.434;2022-12-20T12:12:24;5.10;99.90
15676;DHT22;7938;47.666;9.434;2022-12-20T12:14:57;5.00;99.90
15676;DHT22;7938;47.666;9.434;2022-12-20T12:17:31;4.70;99.90
15676;DHT22;7938;47.666;9.434;2022-12-20T12:20:19;4.70;99.90
15676;DHT22;7938;47.666;9.434;2022-12-20T12:22:49;4.60;99.90
15676;DHT22;7938;47.666;9.434;2022-12-20T12:25:17;4.60;99.90
15676;DHT22;7938;47.666;9.434;2022-12-20T12:27:46;4.50;99.90
15676;DHT22;7938;47.666;9.434;2022-12-20T12:30:14;4.40;99.90
15676;DHT22;7938;47.666;9.434;2022-12-20T12:32:45;4.30;99.90
15676;DHT22;7938;47.666;9.434;2022-12-20T12:35:52;4.30;99.90
15676;DHT22;7938;47.666;9.434;2022-12-20T12:39:03;4.20;99.90
15676;DHT22;7938;47.666;9.434;2022-12-20T12:44:58;4.20;99.90
15676;DHT22;7938;47.666;9.434;2022-12-20T12:47:33;4.20;99.90
15676;DHT22;7938;47.666;9.434;2022-12-20T12:50:05;4.30;99.90
15676;DHT22;7938;47.666;9.434;2022-12-20T12:52:42;4.30;99.90
15676;DHT22;7938;47.666;9.434;2022-12-20T12:55:36;4.30;99.90
15676;DHT22;7938;47.666;9.434;2022-12-20T12:58:36;4.30;99.90
15676;DHT22;7938;47.666;9.434;2022-12-20T13:01:08;4.50;99.90
15676;DHT22;7938;47.666;9.434;2022-12-20T13:04:09;4.50;99.90
15676;DHT22;7938;47.666;9.434;2022-12-20T13:09:45;4.80;99.90
15676;DHT22;7938;47.666;9.434;2022-12-20T13:15:48;5.10;99.90
15676;DHT22;7938;47.666;9.434;2022-12-20T13:18:26;5.40;99.90
15676;DHT22;7938;47.666;9.434;2022-12-20T13:21:31;5.60;99.90
15676;DHT22;7938;47.666;9.434;2022-12-20T13:27:31;5.60;99.90
15676;DHT22;7938;47.666;9.434;2022-12-20T13:30:25;5.70;99.90
15676;DHT22;7938;47.666;9.434;2022-12-20T13:39:32;5.70;99.90
15676;DHT22;7938;47.666;9.434;2022-12-20T13:42:14;5.60;99.90
15676;DHT22;7938;47.666;9.434;2022-12-20T13:44:43;5.50;99.90
15676;DHT22;7938;47.666;9.434;2022-12-20T13:47:35;5.40;99.90
15676;DHT22;7938;47.666;9.434;2022-12-20T13:50:22;5.60;99.90
15676;DHT22;7938;47.666;9.434;2022-12-20T13:52:50;5.60;99.90
15676;DHT22;7938;47.666;9.434;2022-12-20T13:55:26;5.60;99.90
15676;DHT22;7938;47.666;9.434;2022-12-20T13:57:57;5.50;99.90
15676;DHT22;7938;47.666;9.434;2022-12-20T14:00:29;5.50;99.90
15676;DHT22;7938;47.666;9.434;2022-12-20T14:02:56;5.50;99.90
15676;DHT22;7938;47.666;9.434;2022-12-20T14:05:24;5.40;99.90
15676;DHT22;7938;47.666;9.434;2022-12-20T14:07:58;5.30;99.90
15676;DHT22;7938;47.666;9.434;2022-12-20T14:10:29;5.20;99.90
15676;DHT22;7938;47.666;9.434;2022-12-20T14:12:57;5.20;99.90
15676;DHT22;7938;47.666;9.434;2022-12-20T14:15:27;5.30;99.90
15676;DHT22;7938;47.666;9.434;2022-12-20T14:17:54;5.10;99.90
15676;DHT22;7938;47.666;9.434;2022-12-20T14:20:25;5.30;99.90
15676;DHT22;7938;47.666;9.434;2022-12-20T14:22:56;4.80;99.90
15676;DHT22;7938;47.666;9.434;2022-12-20T14:25:30;4.70;99.90
15676;DHT22;7938;47.666;9.434;2022-12-20T14:27:58;4.50;99.90
15676;DHT22;7938;47.666;9.434;2022-12-20T14:30:31;4.30;99.90
15676;DHT22;7938;47.666;9.434;2022-12-20T14:33:00;4.20;99.90
15676;DHT22;7938;47.666;9.434;2022-12-20T14:35:27;4.20;99.90
15676;DHT22;7938;47.666;9.434;2022-12-20T14:37:57;4.10;99.90
15676;DHT22;7938;47.666;9.434;2022-12-20T14:40:26;3.90;99.90
15676;DHT22;7938;47.666;9.434;2022-12-20T14:42:55;3.90;99.90
15676;DHT22;7938;47.666;9.434;2022-12-20T14:45:24;3.90;99.90
15676;DHT22;7938;47.666;9.434;2022-12-20T14:48:00;3.80;99.90
15676;DHT22;7938;47.666;9.434;2022-12-20T14:50:31;3.70;99.90
15676;DHT22;7938;47.666;9.434;2022-12-20T14:52:59;3.90;99.90
15676;DHT22;7938;47.666;9.434;2022-12-20T14:55:31;3.90;99.90
15676;DHT22;7938;47.666;9.434;2022-12-20T14:58:00;3.90;99.90
15676;DHT22;7938;47.666;9.434;2022-12-20T15:00:32;3.80;99.90
15676;DHT22;7938;47.666;9.434;2022-12-20T15:03:02;3.80;99.90
15676;DHT22;7938;47.666;9.434;2022-12-20T15:05:54;3.80;99.90
15676;DHT22;7938;47.666;9.434;2022-12-20T15:08:23;3.80;99.90
15676;DHT22;7938;47.666;9.434;2022-12-20T15:10:55;3.90;99.90
15676;DHT22;7938;47.666;9.434;2022-12-20T15:13:27;3.90;99.90
15676;DHT22;7938;47.666;9.434;2022-12-20T15:15:57;3.90;99.90
15676;DHT22;7938;47.666;9.434;2022-12-20T15:18:24;3.90;99.90
15676;DHT22;7938;47.666;9.434;2022-12-20T15:20:59;3.80;99.90
15676;DHT22;7938;47.666;9.434;2022-12-20T15:23:27;3.70;99.90
15676;DHT22;7938;47.666;9.434;2022-12-20T15:25:54;3.60;99.90
15676;DHT22;7938;47.666;9.434;2022-12-20T15:28:24;3.40;99.90
15676;DHT22;7938;47.666;9.434;2022-12-20T15:30:52;3.30;99.90
15676;DHT22;7938;47.666;9.434;2022-12-20T15:33:22;3.20;99.90
15676;DHT22;7938;47.666;9.434;2022-12-20T15:35:49;3.10;99.90
15676;DHT22;7938;47.666;9.434;2022-12-20T15:38:18;3.00;99.90
15676;DHT22;7938;47.666;9.434;2022-12-20T15:40:48;2.90;99.90
15676;DHT22;7938;47.666;9.434;2022-12-20T15:43:18;2.80;99.90
15676;DHT22;7938;47.666;9.434;2022-12-20T15:45:48;2.80;99.90
15676;DHT22;7938;47.666;9.434;2022-12-20T15:48:17;2.60;99.90
15676;DHT22;7938;47.666;9.434;2022-12-20T15:50:48;2.60;99.90
15676;DHT22;7938;47.666;9.434;2022-12-20T15:53:18;2.60;99.90
15676;DHT22;7938;47.666;9.434;2022-12-20T15:55:48;2.60;99.90
15676;DHT22;7938;47.666;9.434;2022-12-20T15:58:15;2.60;99.90
15676;DHT22;7938;47.666;9.434;2022-12-20T16:00:43;2.60;99.90
15676;DHT22;7938;47.666;9.434;2022-12-20T16:03:14;2.50;99.90
15676;DHT22;7938;47.666;9.434;2022-12-20T16:05:42;2.50;99.90
15676;DHT22;7938;47.666;9.434;2022-12-20T16:08:09;2.40;99.90
15676;DHT22;7938;47.666;9.434;2022-12-20T16:10:36;2.40;99.90
15676;DHT22;7938;47.666;9.434;2022-12-20T16:13:03;2.40;99.90
15676;DHT22;7938;47.666;9.434;2022-12-20T16:15:32;2.40;99.90
15676;DHT22;7938;47.666;9.434;2022-12-20T16:17:59;2.30;99.90
15676;DHT22;7938;47.666;9.434;2022-12-20T16:20:27;2.40;99.90
15676;DHT22;7938;47.666;9.434;2022-12-20T16:22:54;2.40;99.90
15676;DHT22;7938;47.666;9.434;2022-12-20T16:25:27;2.30;99.90
15676;DHT22;7938;47.666;9.434;2022-12-20T16:27:54;2.30;99.90
15676;DHT22;7938;47.666;9.434;2022-12-20T16:30:21;2.30;99.90
15676;DHT22;7938;47.666;9.434;2022-12-20T16:32:48;2.30;99.90
15676;DHT22;7938;47.666;9.434;2022-12-20T16:35:24;2.20;99.90
15676;DHT22;7938;47.666;9.434;2022-12-20T16:37:54;2.10;99.90
15676;DHT22;7938;47.666;9.434;2022-12-20T16:40:22;2.10;99.90
15676;DHT22;7938;47.666;9.434;2022-12-20T16:42:49;2.10;99.90
15676;DHT22;7938;47.666;9.434;2022-12-20T16:45:18;2.10;99.90
15676;DHT22;7938;47.666;9.434;2022-12-20T16:47:46;2.10;99.90
15676;DHT22;7938;47.666;9.434;2022-12-20T16:50:14;2.10;99.90
15676;DHT22;7938;47.666;9.434;2022-12-20T16:52:42;2.10;99.90
15676;DHT22;7938;47.666;9.434;2022-12-20T16:55:14;2.10;99.90
15676;DHT22;7938;47.666;9.434;2022-12-20T16:57:41;2.20;99.90
15676;DHT22;7938;47.666;9.434;2022-12-20T17:00:09;2.20;99.90
15676;DHT22;7938;47.666;9.434;2022-12-20T17:02:41;2.20;99.90
15676;DHT22;7938;47.666;9.434;2022-12-20T17:05:17;2.20;99.90
15676;DHT22;7938;47.666;9.434;2022-12-20T17:07:46;2.30;99.90
15676;DHT22;7938;47.666;9.434;2022-12-20T17:10:14;2.30;99.90
15676;DHT22;7938;47.666;9.434;2022-12-20T17:12:42;2.30;99.90
15676;DHT22;7938;47.666;9.434;2022-12-20T17:15:15;2.30;99.90
15676;DHT22;7938;47.666;9.434;2022-12-20T17:17:42;2.30;99.90
15676;DHT22;7938;47.666;9.434;2022-12-20T17:20:11;2.30;99.90
15676;DHT22;7938;47.666;9.434;2022-12-20T17:22:38;2.30;99.90
15676;DHT22;7938;47.666;9.434;2022-12-20T17:25:17;2.30;99.90
15676;DHT22;7938;47.666;9.434;2022-12-20T17:27:44;2.30;99.90
15676;DHT22;7938;47.666;9.434;2022-12-20T17:30:11;2.30;99.90
15676;DHT22;7938;47.666;9.434;2022-12-20T17:32:38;2.30;99.90
15676;DHT22;7938;47.666;9.434;2022-12-20T17:35:09;2.30;99.90
15676;DHT22;7938;47.666;9.434;2022-12-20T17:37:38;2.30;99.90
15676;DHT22;7938;47.666;9.434;2022-12-20T17:40:07;2.40;99.90
15676;DHT22;7938;47.666;9.434;2022-12-20T17:42:36;2.40;99.90
15676;DHT22;7938;47.666;9.434;2022-12-20T17:45:03;2.50;99.90
15676;DHT22;7938;47.666;9.434;2022-12-20T17:47:30;2.50;99.90
15676;DHT22;7938;47.666;9.434;2022-12-20T17:49:57;2.60;99.90
15676;DHT22;7938;47.666;9.434;2022-12-20T17:52:24;2.60;99.90
15676;DHT22;7938;47.666;9.434;2022-12-20T17:54:51;2.70;99.90
15676;DHT22;7938;47.666;9.434;2022-12-20T17:57:17;2.70;99.90
15676;DHT22;7938;47.666;9.434;2022-12-20T17:59:46;2.70;99.90
15676;DHT22;7938;47.666;9.434;2022-12-20T18:02:21;2.70;99.90
15676;DHT22;7938;47.666;9.434;2022-12-20T18:04:48;2.70;99.90
15676;DHT22;7938;47.666;9.434;2022-12-20T18:07:15;2.60;99.90
15676;DHT22;7938;47.666;9.434;2022-12-20T18:09:42;2.60;99.90
15676;DHT22;7938;47.666;9.434;2022-12-20T18:12:11;2.60;99.90
15676;DHT22;7938;47.666;9.434;2022-12-20T18:14:38;2.60;99.90
15676;DHT22;7938;47.666;9.434;2022-12-20T18:17:06;2.60;99.90
15676;DHT22;7938;47.666;9.434;2022-12-20T18:19:33;2.60;99.90
15676;DHT22;7938;47.666;9.434;2022-12-20T18:22:00;2.60;99.90
15676;DHT22;7938;47.666;9.434;2022-12-20T18:24:29;2.60;99.90
15676;DHT22;7938;47.666;9.434;2022-12-20T18:26:55;2.60;99.90
15676;DHT22;7938;47.666;9.434;2022-12-20T18:29:22;2.60;99.90
15676;DHT22;7938;47.666;9.434;2022-12-20T18:31:49;2.60;99.90
15676;DHT22;7938;47.666;9.434;2022-12-20T18:34:17;2.60;99.90
15676;DHT22;7938;47.666;9.434;2022-12-20T18:36:45;2.70;99.90
15676;DHT22;7938;47.666;9.434;2022-12-20T18:39:12;2.60;99.90
15676;DHT22;7938;47.666;9.434;2022-12-20T18:41:39;2.60;99.90
15676;DHT22;7938;47.666;9.434;2022-12-20T18:44:09;2.70;99.90
15676;DHT22;7938;47.666;9.434;2022-12-20T18:46:36;2.70;99.90
15676;DHT22;7938;47.666;9.434;2022-12-20T18:49:03;2.80;99.90
15676;DHT22;7938;47.666;9.434;2022-12-20T18:51:33;2.90;99.90
15676;DHT22;7938;47.666;9.434;2022-12-20T18:54:02;3.00;99.90
15676;DHT22;7938;47.666;9.434;2022-12-20T18:56:31;2.90;99.90
15676;DHT22;7938;47.666;9.434;2022-12-20T18:58:59;2.90;99.90
15676;DHT22;7938;47.666;9.434;2022-12-20T19:01:28;2.90;99.90
15676;DHT22;7938;47.666;9.434;2022-12-20T19:03:56;3.00;99.90
15676;DHT22;7938;47.666;9.434;2022-12-20T19:06:24;3.00;99.90
15676;DHT22;7938;47.666;9.434;2022-12-20T19:08:53;3.00;99.90
15676;DHT22;7938;47.666;9.434;2022-12-20T19:11:22;2.90;99.90
15676;DHT22;7938;47.666;9.434;2022-12-20T19:13:49;2.80;99.90
15676;DHT22;7938;47.666;9.434;2022-12-20T19:16:18;2.80;99.90
15676;DHT22;7938;47.666;9.434;2022-12-20T19:18:46;2.80;99.90
15676;DHT22;7938;47.666;9.434;2022-12-20T19:21:15;2.80;99.90
15676;DHT22;7938;47.666;9.434;2022-12-20T19:23:44;2.80;99.90
15676;DHT22;7938;47.666;9.434;2022-12-20T19:26:13;2.90;99.90
15676;DHT22;7938;47.666;9.434;2022-12-20T19:28:41;2.80;99.90
15676;DHT22;7938;47.666;9.434;2022-12-20T19:31:10;2.90;99.90
15676;DHT22;7938;47.666;9.434;2022-12-20T19:33:37;2.90;99.90
15676;DHT22;7938;47.666;9.434;2022-12-20T19:36:08;2.90;99.90
15676;DHT22;7938;47.666;9.434;2022-12-20T19:38:35;2.90;99.90
15676;DHT22;7938;47.666;9.434;2022-12-20T19:41:03;2.90;99.90
15676;DHT22;7938;47.666;9.434;2022-12-20T19:43:31;2.90;99.90
15676;DHT22;7938;47.666;9.434;2022-12-20T19:46:01;3.00;99.90
15676;DHT22;7938;47.666;9.434;2022-12-20T19:48:28;2.70;99.90
15676;DHT22;7938;47.666;9.434;2022-12-20T19:51:00;2.90;99.90
15676;DHT22;7938;47.666;9.434;2022-12-20T19:53:27;2.90;99.90
15676;DHT22;7938;47.666;9.434;2022-12-20T19:55:54;2.90;99.90
15676;DHT22;7938;47.666;9.434;2022-12-20T19:58:21;2.80;99.90
15676;DHT22;7938;47.666;9.434;2022-12-20T20:00:50;2.80;99.90
15676;DHT22;7938;47.666;9.434;2022-12-20T20:03:17;2.80;99.90
15676;DHT22;7938;47.666;9.434;2022-12-20T20:05:46;2.90;99.90
15676;DHT22;7938;47.666;9.434;2022-12-20T20:08:13;3.00;99.90
15676;DHT22;7938;47.666;9.434;2022-12-20T20:10:41;3.00;99.90
15676;DHT22;7938;47.666;9.434;2022-12-20T20:13:09;3.00;99.90
15676;DHT22;7938;47.666;9.434;2022-12-20T20:15:36;3.00;99.90
15676;DHT22;7938;47.666;9.434;2022-12-20T20:18:04;3.00;99.90
15676;DHT22;7938;47.666;9.434;2022-12-20T20:20:31;3.10;99.90
15676;DHT22;7938;47.666;9.434;2022-12-20T20:22:59;3.10;99.90
15676;DHT22;7938;47.666;9.434;2022-12-20T20:25:26;3.10;99.90
15676;DHT22;7938;47.666;9.434;2022-12-20T20:27:53;3.10;99.90
15676;DHT22;7938;47.666;9.434;2022-12-20T20:32:47;3.10;99.90
15676;DHT22;7938;47.666;9.434;2022-12-20T20:35:15;3.00;99.90
15676;DHT22;7938;47.666;9.434;2022-12-20T20:37:42;3.00;99.90
15676;DHT22;7938;47.666;9.434;2022-12-20T20:40:10;3.00;99.90
15676;DHT22;7938;47.666;9.434;2022-12-20T20:42:37;3.00;99.90
15676;DHT22;7938;47.666;9.434;2022-12-20T20:45:05;2.90;99.90
15676;DHT22;7938;47.666;9.434;2022-12-20T20:47:32;2.90;99.90
15676;DHT22;7938;47.666;9.434;2022-12-20T20:49:59;3.00;99.90
15676;DHT22;7938;47.666;9.434;2022-12-20T20:52:27;3.00;99.90
15676;DHT22;7938;47.666;9.434;2022-12-20T20:54:54;2.90;99.90
15676;DHT22;7938;47.666;9.434;2022-12-20T20:57:21;2.90;99.90
15676;DHT22;7938;47.666;9.434;2022-12-20T20:59:48;3.00;99.90
15676;DHT22;7938;47.666;9.434;2022-12-20T21:02:14;3.40;99.90
15676;DHT22;7938;47.666;9.434;2022-12-20T21:04:45;3.00;99.90
15676;DHT22;7938;47.666;9.434;2022-12-20T21:07:12;3.00;99.90
15676;DHT22;7938;47.666;9.434;2022-12-20T21:09:40;2.90;99.90
15676;DHT22;7938;47.666;9.434;2022-12-20T21:12:07;2.80;99.90
15676;DHT22;7938;47.666;9.434;2022-12-20T21:14:34;2.80;99.90
15676;DHT22;7938;47.666;9.434;2022-12-20T21:17:01;2.80;99.90
15676;DHT22;7938;47.666;9.434;2022-12-20T21:19:28;2.90;99.90
15676;DHT22;7938;47.666;9.434;2022-12-20T21:21:55;3.00;99.90
15676;DHT22;7938;47.666;9.434;2022-12-20T21:24:22;2.90;99.90
15676;DHT22;7938;47.666;9.434;2022-12-20T21:26:50;2.90;99.90
15676;DHT22;7938;47.666;9.434;2022-12-20T21:29:19;2.90;99.90
15676;DHT22;7938;47.666;9.434;2022-12-20T21:31:46;2.90;99.90
15676;DHT22;7938;47.666;9.434;2022-12-20T21:34:14;2.90;99.90
15676;DHT22;7938;47.666;9.434;2022-12-20T21:36:41;2.90;99.90
15676;DHT22;7938;47.666;9.434;2022-12-20T21:39:10;2.90;99.90
15676;DHT22;7938;47.666;9.434;2022-12-20T21:41:38;3.00;99.90
15676;DHT22;7938;47.666;9.434;2022-12-20T21:44:06;2.90;99.90
15676;DHT22;7938;47.666;9.434;2022-12-20T21:46:33;3.00;99.90
15676;DHT22;7938;47.666;9.434;2022-12-20T21:49:00;2.90;99.90